Time;durP1;ratioP1;P1;durP2;ratioP2;P2;SDS_P1;SDS_P2;PMS_P1;PMS_P2;Temp;Humidity;BMP_temperature;BMP_pressure;BME280_temperature;BME280_humidity;BME280_pressure;Samples;Min_cycle;Max_cycle;Signal;HPM_P1;HPM_P2
2022/07/21 00:01:54;;;;;;;14.10;10.48;;;12.70;99.90;;;;;;5000225;28;20121;-70
2022/07/21 00:04:22;;;;;;;18.55;10.80;;;12.70;99.90;;;;;;5003870;28;20029;-66
2022/07/21 00:06:50;;;;;;;18.15;12.07;;;12.70;99.90;;;;;;5020216;28;20087;-65
2022/07/21 00:09:18;;;;;;;15.75;11.50;;;12.70;99.90;;;;;;5020467;28;20041;-68
2022/07/21 00:11:45;;;;;;;18.10;12.02;;;12.80;99.90;;;;;;5011305;28;20069;-66
2022/07/21 00:14:13;;;;;;;15.80;11.20;;;12.80;99.90;;;;;;5004626;28;20026;-67
2022/07/21 00:16:41;;;;;;;16.85;10.93;;;13.00;99.90;;;;;;4999005;28;20076;-68
2022/07/21 00:19:10;;;;;;;14.73;10.50;;;13.10;99.90;;;;;;5005703;28;20029;-68
2022/07/21 00:21:38;;;;;;;17.92;11.10;;;13.20;99.90;;;;;;4999675;28;20124;-66
2022/07/21 00:24:06;;;;;;;15.27;9.68;;;13.40;99.90;;;;;;5000474;28;20030;-66
2022/07/21 00:26:33;;;;;;;12.70;8.82;;;13.40;99.90;;;;;;4999562;28;20114;-67
2022/07/21 00:29:00;;;;;;;14.77;8.95;;;13.40;99.90;;;;;;5001521;28;20060;-70
2022/07/21 00:31:28;;;;;;;14.60;8.50;;;13.40;99.90;;;;;;5003467;28;20034;-70
2022/07/21 00:33:55;;;;;;;12.90;8.60;;;13.40;99.90;;;;;;5008139;28;20096;-68
2022/07/21 00:36:23;;;;;;;13.43;8.52;;;13.40;99.90;;;;;;5003866;28;20022;-67
2022/07/21 00:38:50;;;;;;;13.50;9.35;;;13.50;99.90;;;;;;5007639;28;20033;-67
2022/07/21 00:41:17;;;;;;;14.65;8.10;;;13.60;99.90;;;;;;5000672;28;20048;-68
2022/07/21 00:43:45;;;;;;;12.77;7.93;;;13.70;99.90;;;;;;4999405;28;20474;-68
2022/07/21 00:46:12;;;;;;;20.05;7.95;;;13.90;99.90;;;;;;5000586;28;20034;-69
2022/07/21 00:48:40;;;;;;;14.52;7.68;;;14.00;99.90;;;;;;5000721;28;20557;-69
2022/07/21 00:51:07;;;;;;;10.32;5.50;;;14.20;99.90;;;;;;5010596;28;20029;-70
2022/07/21 00:53:35;;;;;;;12.10;6.90;;;14.20;99.90;;;;;;4999635;28;20021;-69
2022/07/21 00:56:02;;;;;;;13.15;5.13;;;14.30;99.90;;;;;;5004555;28;20018;-68
2022/07/21 00:58:30;;;;;;;12.70;4.82;;;14.40;99.90;;;;;;5014294;28;20055;-69
2022/07/21 01:00:57;;;;;;;6.80;3.03;;;14.40;99.90;;;;;;5015227;28;20029;-69
2022/07/21 01:03:24;;;;;;;9.65;2.47;;;14.50;99.90;;;;;;5004171;28;20018;-67
2022/07/21 01:05:52;;;;;;;6.65;1.55;;;14.50;99.90;;;;;;5004279;28;20029;-70
2022/07/21 01:08:19;;;;;;;6.60;2.00;;;14.40;99.90;;;;;;5004450;28;20109;-67
2022/07/21 01:10:47;;;;;;;11.45;2.17;;;14.40;99.90;;;;;;5002805;28;20391;-71
2022/07/21 01:13:14;;;;;;;12.10;2.88;;;14.50;99.90;;;;;;5006589;28;20036;-66
2022/07/21 01:15:41;;;;;;;10.93;1.88;;;14.70;99.90;;;;;;5013623;28;20411;-68
2022/07/21 01:18:10;;;;;;;9.80;2.00;;;14.70;99.90;;;;;;5004077;28;20026;-69
2022/07/21 01:20:41;;;;;;;14.55;2.72;;;14.70;99.90;;;;;;5000627;28;20022;-69
2022/07/21 01:23:08;;;;;;;8.85;1.90;;;14.90;99.90;;;;;;5004184;28;20034;-69
2022/07/21 01:25:35;;;;;;;8.57;1.30;;;15.10;99.90;;;;;;5005567;28;20017;-70
2022/07/21 01:28:03;;;;;;;8.98;1.42;;;15.20;99.90;;;;;;5003738;28;20018;-68
2022/07/21 01:30:30;;;;;;;8.57;1.92;;;15.20;99.90;;;;;;5003309;28;20069;-68
2022/07/21 01:32:58;;;;;;;10.32;2.30;;;15.20;99.90;;;;;;5003274;28;20058;-70
2022/07/21 01:35:25;;;;;;;7.95;1.83;;;15.20;99.90;;;;;;5006915;28;20486;-69
2022/07/21 01:37:52;;;;;;;10.25;1.80;;;15.30;99.90;;;;;;5003024;28;20022;-69
2022/07/21 01:43:06;;;;;;;9.13;1.77;;;15.30;99.90;;;;;;5012501;28;20545;-70
2022/07/21 01:45:33;;;;;;;9.02;1.70;;;15.30;99.90;;;;;;5003479;28;20045;-69
2022/07/21 01:48:00;;;;;;;4.75;1.25;;;15.30;99.90;;;;;;5003601;28;20112;-69
2022/07/21 01:50:28;;;;;;;8.07;1.63;;;15.30;99.90;;;;;;4997152;28;20065;-67
2022/07/21 01:52:56;;;;;;;8.60;1.65;;;15.30;99.90;;;;;;5001857;28;20539;-68
2022/07/21 01:55:25;;;;;;;7.47;2.33;;;15.30;99.90;;;;;;5002995;28;20083;-68
2022/07/21 01:57:53;;;;;;;8.50;1.60;;;15.30;99.90;;;;;;5003001;28;20559;-68
2022/07/21 02:00:21;;;;;;;9.00;1.92;;;15.50;99.90;;;;;;5003500;28;20771;-70
2022/07/21 02:02:48;;;;;;;9.52;2.17;;;15.70;99.90;;;;;;5004509;28;20471;-69
2022/07/21 02:05:15;;;;;;;10.05;2.00;;;15.90;99.90;;;;;;5022779;28;20030;-68
2022/07/21 02:07:43;;;;;;;10.63;2.67;;;16.10;99.90;;;;;;5005069;28;20430;-67
2022/07/21 02:10:10;;;;;;;12.73;2.47;;;16.20;99.90;;;;;;5002556;28;20033;-65
2022/07/21 02:12:37;;;;;;;12.35;2.65;;;16.20;99.90;;;;;;5019775;28;20069;-67
2022/07/21 02:15:05;;;;;;;6.43;2.17;;;16.10;99.90;;;;;;5009788;28;20112;-67
2022/07/21 02:17:33;;;;;;;7.50;1.90;;;15.80;99.90;;;;;;5003511;28;20053;-68
2022/07/21 02:20:00;;;;;;;6.63;1.83;;;15.50;99.90;;;;;;5001761;28;20034;-72
2022/07/21 02:22:27;;;;;;;5.72;1.70;;;15.30;99.90;;;;;;5010546;28;20057;-70
2022/07/21 02:24:54;;;;;;;8.85;1.00;;;15.00;99.90;;;;;;5001941;28;20033;-66
2022/07/21 02:27:22;;;;;;;7.70;1.52;;;14.80;99.90;;;;;;5016446;28;20067;-68
2022/07/21 02:29:49;;;;;;;6.65;1.10;;;14.70;99.90;;;;;;5016761;28;20032;-66
2022/07/21 02:32:16;;;;;;;6.00;2.70;;;14.80;99.90;;;;;;5002469;28;20034;-66
2022/07/21 02:34:44;;;;;;;6.63;2.45;;;14.70;99.90;;;;;;5001752;28;20030;-68
2022/07/21 02:37:11;;;;;;;6.07;1.20;;;14.60;99.90;;;;;;5011763;28;20037;-67
2022/07/21 02:39:38;;;;;;;8.48;3.60;;;14.60;99.90;;;;;;5011522;28;20018;-68
2022/07/21 02:42:06;;;;;;;6.68;1.60;;;14.50;99.90;;;;;;5001883;28;20562;-71
2022/07/21 02:44:33;;;;;;;7.50;1.38;;;14.50;99.90;;;;;;5002572;28;20026;-70
2022/07/21 02:47:00;;;;;;;7.93;1.58;;;14.60;99.90;;;;;;5001979;28;20033;-67
2022/07/21 02:49:28;;;;;;;4.55;1.67;;;14.80;99.90;;;;;;5020815;28;20025;-68
2022/07/21 02:51:55;;;;;;;9.80;2.78;;;14.90;99.90;;;;;;5010962;28;20049;-67
2022/07/21 02:54:22;;;;;;;7.20;1.85;;;15.00;99.90;;;;;;5022310;28;20075;-71
2022/07/21 02:56:50;;;;;;;9.90;2.10;;;15.10;99.90;;;;;;5010476;28;20064;-73
2022/07/21 02:59:17;;;;;;;9.27;1.90;;;15.10;99.90;;;;;;5002101;28;20042;-70
2022/07/21 03:01:44;;;;;;;8.73;1.50;;;15.10;99.90;;;;;;5004445;28;20017;-67
2022/07/21 03:04:12;;;;;;;9.93;1.92;;;15.10;99.90;;;;;;5021501;28;20041;-69
2022/07/21 03:06:40;;;;;;;7.22;1.67;;;15.00;99.90;;;;;;5022315;28;20752;-68
2022/07/21 03:09:07;;;;;;;5.10;1.30;;;14.90;99.90;;;;;;5021149;28;20121;-67
2022/07/21 03:11:35;;;;;;;9.90;2.47;;;14.90;99.90;;;;;;5008135;28;20149;-67
2022/07/21 03:14:02;;;;;;;10.00;2.55;;;14.80;99.90;;;;;;5000704;28;20022;-67
2022/07/21 03:16:30;;;;;;;9.90;2.55;;;14.80;99.90;;;;;;5011446;28;20498;-67
2022/07/21 03:18:57;;;;;;;9.98;3.75;;;14.90;99.90;;;;;;5001138;28;20033;-67
2022/07/21 03:21:25;;;;;;;8.63;2.42;;;15.00;99.90;;;;;;5005806;28;20021;-67
2022/07/21 03:23:52;;;;;;;10.48;1.90;;;15.00;99.90;;;;;;5020601;28;20685;-67
2022/07/21 03:26:19;;;;;;;6.93;2.00;;;14.90;99.90;;;;;;5010026;28;20037;-67
2022/07/21 03:28:47;;;;;;;7.97;2.17;;;14.80;99.90;;;;;;5019387;28;20025;-71
2022/07/21 03:31:14;;;;;;;8.13;2.08;;;14.80;99.90;;;;;;5001298;28;20045;-67
2022/07/21 03:33:41;;;;;;;9.45;2.63;;;14.70;99.90;;;;;;5003312;28;20022;-67
2022/07/21 03:36:09;;;;;;;6.50;1.85;;;14.80;99.90;;;;;;5002341;28;20032;-70
2022/07/21 03:38:36;;;;;;;10.40;2.25;;;14.90;99.90;;;;;;4995969;28;20022;-70
2022/07/21 03:41:03;;;;;;;11.63;1.80;;;14.90;99.90;;;;;;5004829;28;20017;-70
2022/07/21 03:43:31;;;;;;;7.30;1.63;;;15.10;99.90;;;;;;5021923;28;20079;-69
2022/07/21 03:45:58;;;;;;;10.10;2.40;;;15.20;99.90;;;;;;5017733;28;20104;-68
2022/07/21 03:48:25;;;;;;;6.90;1.73;;;15.40;99.90;;;;;;5020601;28;20026;-69
2022/07/21 03:50:52;;;;;;;6.65;1.80;;;15.50;99.90;;;;;;5013321;28;20120;-68
2022/07/21 03:53:20;;;;;;;9.05;1.55;;;15.50;99.90;;;;;;5001011;28;20030;-68
2022/07/21 03:55:47;;;;;;;12.50;3.20;;;15.50;99.90;;;;;;5003516;28;20061;-69
2022/07/21 03:58:14;;;;;;;12.05;1.92;;;15.50;99.90;;;;;;5019816;28;20041;-69
2022/07/21 04:00:44;;;;;;;7.10;1.52;;;15.50;99.90;;;;;;5003485;28;20018;-67
2022/07/21 04:03:12;;;;;;;4.53;1.30;;;15.40;99.90;;;;;;5000028;28;20014;-73
2022/07/21 04:05:41;;;;;;;8.60;1.20;;;15.30;99.90;;;;;;5001227;28;20360;-70
2022/07/21 04:08:10;;;;;;;10.90;1.52;;;15.20;99.90;;;;;;5000217;28;20628;-73
2022/07/21 04:10:39;;;;;;;7.25;1.60;;;15.10;99.90;;;;;;5002846;28;20062;-67
2022/07/21 04:13:09;;;;;;;10.15;2.90;;;14.80;99.90;;;;;;5009010;28;20033;-68
2022/07/21 04:15:37;;;;;;;10.05;1.75;;;14.70;99.90;;;;;;5007041;28;20029;-68
2022/07/21 04:18:06;;;;;;;10.48;1.98;;;14.50;99.90;;;;;;4981279;28;20034;-65
2022/07/21 04:20:34;;;;;;;8.70;1.95;;;14.50;99.90;;;;;;4985456;28;20761;-65
2022/07/21 04:23:02;;;;;;;9.43;2.00;;;14.30;99.90;;;;;;4998854;28;20038;-68
2022/07/21 04:25:29;;;;;;;10.00;1.42;;;14.30;99.90;;;;;;5007217;28;20029;-67
2022/07/21 04:27:58;;;;;;;8.43;2.10;;;14.20;99.90;;;;;;5012080;28;20033;-67
2022/07/21 04:30:26;;;;;;;8.07;1.48;;;14.30;99.90;;;;;;4998391;28;20026;-67
2022/07/21 04:32:53;;;;;;;10.63;2.47;;;14.20;99.90;;;;;;5001115;28;20033;-68
2022/07/21 04:35:21;;;;;;;8.48;2.40;;;14.20;99.90;;;;;;4999782;28;20018;-75
2022/07/21 04:37:48;;;;;;;7.22;1.70;;;14.20;99.90;;;;;;5009470;28;20041;-68
2022/07/21 04:40:16;;;;;;;10.95;1.40;;;14.30;99.90;;;;;;5009467;28;20106;-68
2022/07/21 04:42:44;;;;;;;9.32;1.67;;;14.20;99.90;;;;;;5004357;28;20148;-68
2022/07/21 04:45:13;;;;;;;7.68;1.80;;;14.30;99.90;;;;;;5017347;28;20025;-68
2022/07/21 04:47:52;;;;;;;6.43;1.77;;;14.30;99.90;;;;;;5000150;28;20338;-68
2022/07/21 04:50:22;;;;;;;8.88;2.13;;;14.30;99.90;;;;;;5003930;28;20033;-68
2022/07/21 04:52:50;;;;;;;8.35;1.30;;;14.40;99.90;;;;;;5000223;28;20096;-69
2022/07/21 04:55:19;;;;;;;6.30;1.27;;;14.40;99.90;;;;;;5000499;28;20022;-71
2022/07/21 04:57:49;;;;;;;6.47;1.67;;;14.40;99.90;;;;;;4998943;28;20526;-68
2022/07/21 05:00:19;;;;;;;6.65;2.10;;;14.40;99.90;;;;;;5005909;28;20104;-68
2022/07/21 05:02:47;;;;;;;5.55;1.35;;;14.50;99.90;;;;;;5000279;28;20037;-68
2022/07/21 05:05:15;;;;;;;6.32;1.45;;;14.60;99.90;;;;;;5003882;28;20379;-68
2022/07/21 05:07:42;;;;;;;11.85;3.97;;;14.60;99.90;;;;;;4999702;28;21174;-69
2022/07/21 05:10:12;;;;;;;10.02;2.47;;;14.60;99.90;;;;;;4999844;28;20014;-74
2022/07/21 05:12:40;;;;;;;11.40;1.50;;;14.60;99.90;;;;;;4998424;28;20034;-69
2022/07/21 05:15:11;;;;;;;6.47;1.30;;;14.60;99.90;;;;;;4999930;28;20029;-70
2022/07/21 05:17:40;;;;;;;8.77;1.90;;;14.60;99.90;;;;;;4999700;28;20030;-70
2022/07/21 05:20:08;;;;;;;11.35;2.88;;;14.60;99.90;;;;;;5009104;28;21109;-69
2022/07/21 05:22:35;;;;;;;14.30;2.85;;;14.60;99.90;;;;;;4997341;28;20423;-71
2022/07/21 05:25:03;;;;;;;8.45;3.40;;;14.70;99.90;;;;;;4999556;28;20022;-69
2022/07/21 05:27:30;;;;;;;10.45;2.10;;;14.70;99.90;;;;;;4998002;28;20058;-68
2022/07/21 05:29:58;;;;;;;8.18;1.75;;;14.70;99.90;;;;;;5001731;28;20018;-70
2022/07/21 05:32:25;;;;;;;7.25;1.67;;;14.80;99.90;;;;;;4988235;28;20495;-72
2022/07/21 05:34:52;;;;;;;9.07;2.95;;;14.80;99.90;;;;;;5000530;28;20021;-70
2022/07/21 05:37:20;;;;;;;13.50;2.47;;;14.90;99.90;;;;;;4999436;28;20030;-67
2022/07/21 05:39:47;;;;;;;9.80;2.67;;;14.90;99.90;;;;;;5000532;28;20112;-68
2022/07/21 05:42:14;;;;;;;7.60;1.92;;;14.80;99.90;;;;;;5003220;28;20017;-67
2022/07/21 05:44:41;;;;;;;7.43;1.63;;;15.00;99.90;;;;;;5001010;28;20018;-73
2022/07/21 05:47:09;;;;;;;9.07;2.10;;;14.90;99.90;;;;;;5000806;28;20038;-70
2022/07/21 05:49:36;;;;;;;9.35;2.13;;;14.90;99.90;;;;;;5000716;28;20438;-71
2022/07/21 05:52:04;;;;;;;14.45;3.00;;;14.90;99.90;;;;;;5002074;28;20406;-70
2022/07/21 05:54:31;;;;;;;8.23;1.60;;;15.00;99.90;;;;;;4999763;28;20531;-71
2022/07/21 05:56:58;;;;;;;9.43;2.53;;;15.00;99.90;;;;;;5005374;28;20018;-73
2022/07/21 05:59:26;;;;;;;8.73;1.48;;;15.00;99.90;;;;;;5001924;28;20499;-69
2022/07/21 06:01:54;;;;;;;7.95;2.42;;;15.00;99.90;;;;;;4998541;28;20414;-69
2022/07/21 06:04:21;;;;;;;10.30;1.77;;;15.10;99.90;;;;;;5000323;28;20108;-67
2022/07/21 06:06:48;;;;;;;11.13;2.83;;;15.10;99.90;;;;;;5000645;28;20030;-72
2022/07/21 06:09:16;;;;;;;8.52;2.00;;;15.10;99.90;;;;;;5001344;28;20359;-71
2022/07/21 06:11:43;;;;;;;8.60;2.65;;;15.10;99.90;;;;;;4999686;28;20978;-69
2022/07/21 06:14:11;;;;;;;10.40;2.10;;;15.00;99.90;;;;;;5002600;28;20026;-73
2022/07/21 06:16:38;;;;;;;13.93;3.40;;;14.90;99.90;;;;;;5000563;28;20032;-71
2022/07/21 06:19:06;;;;;;;12.45;2.08;;;14.70;99.90;;;;;;5002414;28;20026;-69
2022/07/21 06:21:34;;;;;;;15.40;3.22;;;14.50;99.90;;;;;;5010576;28;20075;-70
2022/07/21 06:24:01;;;;;;;10.40;2.85;;;14.40;99.90;;;;;;5017052;28;20083;-70
2022/07/21 06:26:29;;;;;;;7.03;1.92;;;14.20;99.90;;;;;;5002582;28;20034;-67
2022/07/21 06:28:56;;;;;;;17.88;3.88;;;14.20;99.90;;;;;;5008413;28;20378;-67
2022/07/21 06:31:24;;;;;;;8.07;2.38;;;14.10;99.90;;;;;;5009527;28;20040;-72
2022/07/21 06:33:51;;;;;;;9.07;2.30;;;14.00;99.90;;;;;;5003989;28;20026;-70
2022/07/21 06:36:18;;;;;;;14.20;3.15;;;13.90;99.90;;;;;;4999085;28;20025;-74
2022/07/21 06:38:46;;;;;;;11.45;2.65;;;13.90;99.90;;;;;;5001605;28;20064;-72
2022/07/21 06:41:14;;;;;;;13.80;2.50;;;13.80;99.90;;;;;;5001756;28;20030;-71
2022/07/21 06:43:41;;;;;;;13.07;3.00;;;13.80;99.90;;;;;;4999962;28;20060;-69
2022/07/21 06:46:08;;;;;;;11.93;2.10;;;13.70;99.90;;;;;;5001337;28;20495;-69
2022/07/21 06:48:36;;;;;;;9.35;1.83;;;13.70;99.90;;;;;;4997241;28;20022;-70
2022/07/21 06:51:03;;;;;;;7.57;1.98;;;13.80;99.90;;;;;;4999628;28;20034;-68
2022/07/21 06:53:30;;;;;;;8.32;2.45;;;13.80;99.90;;;;;;5001045;28;20040;-68
2022/07/21 06:55:58;;;;;;;10.27;2.05;;;13.80;99.90;;;;;;4999381;28;20403;-72
2022/07/21 06:58:25;;;;;;;12.45;4.65;;;13.80;99.90;;;;;;4998536;28;20038;-69
2022/07/21 07:00:53;;;;;;;10.05;3.88;;;13.70;99.90;;;;;;4998791;28;20025;-68
2022/07/21 07:03:21;;;;;;;9.70;2.78;;;13.70;99.90;;;;;;4997983;28;20542;-68
2022/07/21 07:05:49;;;;;;;10.57;2.72;;;13.70;99.90;;;;;;4999787;28;20033;-69
2022/07/21 07:08:17;;;;;;;15.73;2.75;;;13.70;99.90;;;;;;5000859;28;20021;-70
2022/07/21 07:10:48;;;;;;;10.82;1.98;;;13.60;99.90;;;;;;4997789;28;20586;-69
2022/07/21 07:13:17;;;;;;;14.15;2.60;;;13.60;99.90;;;;;;5000513;28;20026;-69
2022/07/21 07:15:45;;;;;;;16.70;3.28;;;13.50;99.90;;;;;;5001348;28;20018;-69
2022/07/21 07:18:12;;;;;;;8.00;1.80;;;13.60;99.90;;;;;;4999613;28;20503;-69
2022/07/21 07:20:40;;;;;;;9.60;1.75;;;13.60;99.90;;;;;;4997573;28;20383;-70
2022/07/21 07:23:07;;;;;;;13.68;2.05;;;13.50;99.90;;;;;;5000090;28;20108;-66
2022/07/21 07:25:34;;;;;;;13.82;2.45;;;13.50;99.90;;;;;;5001742;28;20030;-69
2022/07/21 07:28:02;;;;;;;9.85;3.20;;;13.50;99.90;;;;;;4998580;28;20061;-68
2022/07/21 07:30:29;;;;;;;11.88;2.20;;;13.50;99.90;;;;;;4999016;28;20028;-68
2022/07/21 07:32:56;;;;;;;13.52;4.30;;;13.50;99.90;;;;;;4999431;28;20022;-67
2022/07/21 07:35:24;;;;;;;10.02;4.72;;;13.50;99.90;;;;;;5001802;28;20675;-67
2022/07/21 07:37:51;;;;;;;12.30;3.53;;;13.50;99.90;;;;;;4999034;28;20025;-66
2022/07/21 07:40:22;;;;;;;9.52;3.03;;;13.50;99.90;;;;;;4997147;28;21503;-71
2022/07/21 07:42:50;;;;;;;10.73;2.20;;;13.50;99.90;;;;;;5000130;28;20062;-69
2022/07/21 07:45:18;;;;;;;9.98;2.05;;;13.50;99.90;;;;;;4998555;28;20038;-69
2022/07/21 07:47:45;;;;;;;11.93;3.60;;;13.50;99.90;;;;;;4999944;28;20014;-69
2022/07/21 07:50:14;;;;;;;12.60;2.20;;;13.60;99.90;;;;;;4998173;28;20372;-69
2022/07/21 07:52:44;;;;;;;9.70;2.60;;;13.50;99.90;;;;;;5003180;28;20038;-69
2022/07/21 07:55:12;;;;;;;14.13;2.70;;;13.60;99.90;;;;;;4998469;28;20112;-69
2022/07/21 07:57:40;;;;;;;11.25;2.72;;;13.70;99.90;;;;;;4999393;28;20049;-69
2022/07/21 08:00:11;;;;;;;10.27;2.63;;;13.70;99.90;;;;;;4995999;28;20614;-69
2022/07/21 08:02:39;;;;;;;17.08;3.65;;;13.80;99.90;;;;;;5002239;28;20430;-70
2022/07/21 08:05:10;;;;;;;11.02;2.10;;;13.80;99.90;;;;;;5000744;28;20085;-70
2022/07/21 08:07:39;;;;;;;11.40;2.50;;;13.80;99.90;;;;;;5012389;28;20645;-70
2022/07/21 08:10:12;;;;;;;13.00;2.70;;;13.80;99.90;;;;;;5031652;28;20089;-68
2022/07/21 08:12:39;;;;;;;17.08;6.72;;;13.80;99.90;;;;;;4999736;28;20431;-70
2022/07/21 08:15:07;;;;;;;10.95;3.03;;;13.90;99.90;;;;;;5001063;28;20034;-69
2022/07/21 08:17:35;;;;;;;17.02;2.97;;;14.00;99.90;;;;;;4998541;28;20164;-68
2022/07/21 08:20:04;;;;;;;13.15;3.03;;;14.00;99.90;;;;;;5006525;28;20022;-70
2022/07/21 08:22:31;;;;;;;14.00;4.22;;;14.00;99.90;;;;;;4998089;28;20034;-68
2022/07/21 08:24:59;;;;;;;12.98;2.78;;;14.00;99.90;;;;;;5000066;28;20050;-69
2022/07/21 08:27:26;;;;;;;13.48;3.20;;;14.00;99.90;;;;;;4994679;28;20032;-71
2022/07/21 08:29:53;;;;;;;15.18;3.05;;;14.00;99.90;;;;;;4997420;28;20026;-70
2022/07/21 08:32:20;;;;;;;14.77;2.42;;;14.00;99.90;;;;;;4998023;28;20041;-72
2022/07/21 08:34:48;;;;;;;8.30;2.20;;;14.10;99.90;;;;;;4999269;28;20017;-70
2022/07/21 08:37:19;;;;;;;11.10;2.97;;;14.10;99.90;;;;;;4996709;28;20076;-69
2022/07/21 08:39:47;;;;;;;14.50;3.15;;;14.10;99.90;;;;;;5000125;28;20018;-69
2022/07/21 08:42:15;;;;;;;13.30;2.42;;;14.10;99.90;;;;;;4998845;28;20026;-67
2022/07/21 08:44:43;;;;;;;11.00;2.85;;;14.10;99.90;;;;;;4997886;28;20029;-69
2022/07/21 08:47:10;;;;;;;13.60;4.93;;;14.10;99.90;;;;;;4998242;28;20533;-70
2022/07/21 08:49:38;;;;;;;15.68;5.55;;;14.20;99.90;;;;;;5009988;28;20041;-70
2022/07/21 08:52:07;;;;;;;15.98;3.67;;;14.20;99.90;;;;;;5001342;28;20100;-70
2022/07/21 08:54:35;;;;;;;12.13;3.65;;;14.30;99.90;;;;;;4998129;28;20542;-69
2022/07/21 08:57:02;;;;;;;7.85;2.35;;;14.20;99.90;;;;;;5005361;28;20053;-69
2022/07/21 08:59:29;;;;;;;10.18;3.25;;;14.30;99.90;;;;;;4998595;28;20045;-71
2022/07/21 09:01:57;;;;;;;8.23;2.22;;;14.30;99.90;;;;;;5000041;28;20040;-70
2022/07/21 09:04:30;;;;;;;11.85;2.60;;;14.30;99.90;;;;;;4999285;28;20053;-70
2022/07/21 09:07:01;;;;;;;11.68;2.72;;;14.30;99.90;;;;;;4999474;28;20022;-71
2022/07/21 09:09:30;;;;;;;12.73;3.40;;;14.30;99.90;;;;;;5011273;28;20203;-71
2022/07/21 09:11:58;;;;;;;10.32;2.40;;;14.30;99.90;;;;;;5003995;28;20034;-70
2022/07/21 09:14:30;;;;;;;10.65;2.88;;;14.20;99.90;;;;;;5000268;28;20426;-70
2022/07/21 09:17:02;;;;;;;10.43;3.85;;;14.30;99.90;;;;;;5003733;28;20026;-70
2022/07/21 09:19:35;;;;;;;;;;;14.30;99.90;;;;;;5009814;28;20033;-70
2022/07/21 09:22:05;;;;;;;8.90;2.75;;;14.20;99.90;;;;;;5003024;28;19912;-69
2022/07/21 09:24:38;;;;;;;14.45;2.92;;;14.10;99.90;;;;;;5002731;28;20030;-71
2022/07/21 09:27:10;;;;;;;10.93;2.83;;;14.20;99.90;;;;;;5003552;28;20058;-68
2022/07/21 09:29:42;;;;;;;10.65;3.85;;;14.20;99.90;;;;;;5004545;28;20118;-68
2022/07/21 09:32:28;;;;;;;;;;;14.10;99.90;;;;;;5003120;28;20049;-69
2022/07/21 09:35:01;;;;;;;10.75;3.10;;;14.10;99.90;;;;;;5000943;28;19929;-71
2022/07/21 09:37:28;;;;;;;19.85;4.03;;;14.20;99.90;;;;;;5003566;28;20018;-69
2022/07/21 09:40:00;;;;;;;12.40;4.03;;;14.30;99.90;;;;;;5011176;28;20033;-70
2022/07/21 09:42:37;;;;;;;14.00;3.72;;;14.30;99.90;;;;;;5006066;28;20096;-68
2022/07/21 09:45:07;;;;;;;11.60;2.80;;;14.30;99.90;;;;;;5009009;28;20096;-68
2022/07/21 09:47:38;;;;;;;8.63;2.05;;;14.40;99.90;;;;;;5014136;28;20148;-70
2022/07/21 09:50:07;;;;;;;10.75;2.83;;;14.40;99.90;;;;;;5021431;28;20538;-69
2022/07/21 09:52:37;;;;;;;10.05;3.88;;;14.50;99.90;;;;;;5000542;28;20045;-69
2022/07/21 09:55:07;;;;;;;15.25;3.50;;;14.40;99.90;;;;;;5011404;28;20029;-69
2022/07/21 09:57:35;;;;;;;11.13;3.30;;;14.40;99.90;;;;;;5022811;28;20046;-70
2022/07/21 10:00:05;;;;;;;8.13;1.55;;;14.40;99.90;;;;;;5022645;28;20097;-70
2022/07/21 10:02:34;;;;;;;14.20;2.20;;;14.30;99.90;;;;;;5003201;28;20030;-68
2022/07/21 10:05:10;;;;;;;8.57;2.17;;;14.30;99.90;;;;;;5005775;28;20116;-70
2022/07/21 10:07:41;;;;;;;10.15;2.58;;;14.20;99.90;;;;;;5007287;28;20064;-68
2022/07/21 10:10:09;;;;;;;11.95;2.80;;;14.20;99.90;;;;;;5003022;28;20033;-69
2022/07/21 10:12:37;;;;;;;8.40;2.42;;;14.20;99.90;;;;;;5002853;28;20482;-70
2022/07/21 10:15:05;;;;;;;14.38;3.55;;;14.20;99.90;;;;;;5017372;28;20039;-69
2022/07/21 10:17:33;;;;;;;11.10;2.17;;;14.20;99.90;;;;;;5015461;28;20032;-68
2022/07/21 10:20:21;;;;;;;8.80;2.58;;;14.20;99.90;;;;;;5011576;28;20492;-70
2022/07/21 10:23:26;;;;;;;7.50;2.28;;;14.20;99.90;;;;;;5006043;28;20045;-69
2022/07/21 10:25:54;;;;;;;9.77;3.25;;;14.20;99.90;;;;;;4980172;28;20035;-69
2022/07/21 10:28:27;;;;;;;11.63;2.08;;;14.20;99.90;;;;;;4994652;28;20438;-71
2022/07/21 10:30:57;;;;;;;8.93;2.05;;;14.20;99.90;;;;;;5000506;28;20036;-69
2022/07/21 10:33:49;;;;;;;13.98;2.70;;;14.30;99.90;;;;;;5003370;28;20034;-68
2022/07/21 10:36:31;;;;;;;8.60;1.75;;;14.30;99.90;;;;;;5001932;28;20435;-70
2022/07/21 10:39:10;;;;;;;13.43;2.60;;;14.30;99.90;;;;;;4999781;28;20053;-70
2022/07/21 10:41:40;;;;;;;11.52;2.50;;;14.30;99.90;;;;;;5000173;28;20034;-69
2022/07/21 10:44:28;;;;;;;9.80;2.97;;;14.30;99.90;;;;;;5006624;28;20044;-68
2022/07/21 10:47:14;;;;;;;13.23;2.65;;;14.40;99.90;;;;;;4997353;28;20411;-70
2022/07/21 10:49:47;;;;;;;17.42;3.30;;;14.30;99.90;;;;;;5001976;28;20036;-72
2022/07/21 10:52:35;;;;;;;14.40;2.63;;;14.40;99.90;;;;;;5001969;28;20125;-72
2022/07/21 10:55:11;;;;;;;13.10;4.60;;;14.40;99.90;;;;;;5001449;28;20026;-70
2022/07/21 10:57:45;;;;;;;12.38;2.50;;;14.40;99.90;;;;;;5002508;28;20443;-70
2022/07/21 11:00:29;;;;;;;10.02;2.88;;;14.40;99.90;;;;;;5002415;28;20029;-70
2022/07/21 11:02:59;;;;;;;8.85;1.65;;;14.40;99.90;;;;;;5007947;28;20044;-71
2022/07/21 11:05:30;;;;;;;12.05;2.53;;;14.40;99.90;;;;;;5002634;28;20072;-69
2022/07/21 11:08:18;;;;;;;10.23;1.85;;;14.40;99.90;;;;;;4998397;28;20022;-70
2022/07/21 11:10:53;;;;;;;8.73;2.20;;;14.30;99.90;;;;;;5009221;28;20080;-70
2022/07/21 11:13:26;;;;;;;14.80;3.28;;;14.30;99.90;;;;;;5011754;28;20471;-68
2022/07/21 11:15:59;;;;;;;;;;;14.40;99.90;;;;;;5004576;28;20033;-70
2022/07/21 11:18:29;;;;;;;9.30;1.95;;;14.40;99.90;;;;;;5000129;28;19905;-69
2022/07/21 11:21:16;;;;;;;11.25;2.00;;;14.40;99.90;;;;;;5015669;28;20084;-69
2022/07/21 11:23:43;;;;;;;16.85;4.05;;;14.40;99.90;;;;;;4987042;28;20026;-68
2022/07/21 11:26:12;;;;;;;11.05;2.30;;;14.40;99.90;;;;;;5020097;28;20017;-70
2022/07/21 11:28:39;;;;;;;11.15;2.30;;;14.40;99.90;;;;;;5020873;28;20029;-68
2022/07/21 11:31:21;;;;;;;13.88;2.13;;;14.40;99.90;;;;;;5020012;28;20104;-69
2022/07/21 11:33:49;;;;;;;9.07;2.35;;;14.40;99.90;;;;;;5022059;28;20040;-68
2022/07/21 11:36:31;;;;;;;15.05;2.40;;;14.40;99.90;;;;;;5010961;28;20022;-69
2022/07/21 11:39:05;;;;;;;10.57;3.08;;;14.30;99.90;;;;;;5012604;28;20398;-67
2022/07/21 11:41:34;;;;;;;13.38;3.17;;;14.30;99.90;;;;;;5014637;28;20088;-67
2022/07/21 11:44:01;;;;;;;9.18;1.80;;;14.20;99.90;;;;;;5002145;28;20018;-68
2022/07/21 11:46:28;;;;;;;11.85;2.22;;;14.10;99.90;;;;;;4999916;28;20021;-69
2022/07/21 11:49:05;;;;;;;13.38;1.60;;;13.90;99.90;;;;;;5002226;28;20072;-66
2022/07/21 11:51:32;;;;;;;16.60;2.83;;;13.80;99.90;;;;;;5000530;28;20028;-65
2022/07/21 11:53:59;;;;;;;16.98;3.97;;;13.80;99.90;;;;;;5018210;28;20079;-66
2022/07/21 11:56:27;;;;;;;13.10;3.70;;;13.70;99.90;;;;;;5019531;28;20105;-66
2022/07/21 11:59:10;;;;;;;10.25;1.60;;;13.60;99.90;;;;;;5007646;28;20073;-67
2022/07/21 12:02:23;;;;;;;12.40;3.00;;;13.50;99.90;;;;;;5009639;28;20100;-66
2022/07/21 12:04:51;;;;;;;;;;;13.50;99.90;;;;;;5020908;28;20120;-67
2022/07/21 12:07:28;;;;;;;13.32;3.75;;;13.40;99.90;;;;;;5011963;28;20385;-67
2022/07/21 12:10:05;;;;;;;13.68;2.30;;;13.40;99.90;;;;;;5001995;28;20475;-68
2022/07/21 12:12:38;;;;;;;17.80;2.80;;;13.30;99.90;;;;;;5000023;28;20032;-68
2022/07/21 12:15:33;;;;;;;12.13;2.65;;;13.30;99.90;;;;;;5003190;28;20028;-69
2022/07/21 12:18:02;;;;;;;14.82;2.20;;;13.20;99.90;;;;;;5001757;28;20022;-69
2022/07/21 12:20:40;;;;;;;11.18;1.90;;;13.00;99.90;;;;;;5000563;28;20044;-67
2022/07/21 12:23:30;;;;;;;8.88;1.30;;;12.90;99.90;;;;;;5021324;28;20401;-69
2022/07/21 12:26:00;;;;;;;7.60;1.52;;;12.90;99.90;;;;;;5019426;28;20028;-68
2022/07/21 12:28:56;;;;;;;9.45;2.03;;;12.80;99.90;;;;;;5019553;28;20071;-68
2022/07/21 12:31:23;;;;;;;10.40;2.70;;;12.70;99.90;;;;;;5019470;28;20028;-68
2022/07/21 12:33:56;;;;;;;9.63;1.98;;;12.70;99.90;;;;;;5020784;28;20021;-68
2022/07/21 12:36:26;;;;;;;5.13;1.95;;;12.70;99.90;;;;;;5017343;28;20032;-68
2022/07/21 12:38:53;;;;;;;6.05;1.50;;;12.50;99.90;;;;;;5021056;28;20021;-68
2022/07/21 12:41:24;;;;;;;8.20;1.77;;;12.50;99.90;;;;;;5019708;28;20378;-67
2022/07/21 12:43:59;;;;;;;4.78;1.08;;;12.40;99.90;;;;;;5020691;28;20482;-67
2022/07/21 12:46:34;;;;;;;7.88;1.38;;;12.40;99.90;;;;;;5019645;28;20182;-69
2022/07/21 12:49:12;;;;;;;8.73;1.75;;;12.30;99.90;;;;;;5015888;28;20057;-69
2022/07/21 12:51:41;;;;;;;8.63;1.33;;;12.40;99.90;;;;;;5017559;28;20049;-69
2022/07/21 12:54:09;;;;;;;14.30;3.40;;;12.30;99.90;;;;;;5020589;28;20022;-69
2022/07/21 12:56:37;;;;;;;7.95;1.35;;;12.30;99.90;;;;;;5019564;28;20356;-69
2022/07/21 12:59:05;;;;;;;6.50;1.35;;;12.30;99.90;;;;;;5020811;28;20041;-69